• Join FlightAware (Why Join?)
  • Login
  • US Flag 
12:02PM EST


 

Airport Tracker/Info


-or-


 

Live Flight TrackerFlight Track Log ✈ N789EP ✈ 22-Sep-2013 ✈ KAGC - KMTN

Flight Track Log - Related Links

Times and Time Zones

All times are in EDT time to prevent confusion due to time zone crossing. See the N789EP flight status page for this flight to view local times or setup timezone preferences in your user account.

Time Position Orientation Groundspeed Altitude Reporting Facility
EDT Latitude Longitude Course Direction KTS MPH feet Rate Location/Type
05:55PM 40.3322 -79.9242 134° Southeast 91 105 2,500  Level Cleveland Center
05:56PM 40.3147 -79.8939 127° Southeast 98 113 2,900 180 Climbing Cleveland Center
05:57PM 40.2939 -79.8597 129° Southeast 108 124 2,900 240 Level Cleveland Center
05:58PM 40.2725 -79.8269 131° Southeast 116 133 3,500 480 Climbing Cleveland Center
05:59PM 40.3284 -79.8948 134° Southeast  Level FlightAware Approximate
05:59PM 40.2531 -79.7997 133° Southeast 104 120 3,900  Level Cleveland Center
05:59PM 40.2544 -79.7978 47° Northeast 108 124 3,900  Level Cleveland Center
05:59PM 40.2517 -79.7942 135° Southeast 103 119 3,900 60 Level Cleveland Center
06:00PM 40.3241 -79.8889 134° Southeast  Level FlightAware Approximate
06:00PM 40.2314 -79.7608 129° Southeast 106 122 4,000  Level Cleveland Center
06:01PM 40.2094 -79.7192 125° Southeast 125 144 4,000  Level Cleveland Center
06:01PM 40.2061 -79.7161 145° Southeast 122 140 4,000 180 Level Cleveland Center
06:02PM 40.1886 -79.6800 122° Southeast 130 150 4,200 180 Climbing Cleveland Center
06:02PM 40.1842 -79.6772 154° Southeast 132 152 4,200 480 Level Cleveland Center
06:03PM 40.1683 -79.6483 126° Southeast 120 138 4,700 360 Climbing Cleveland Center
06:04PM 40.1456 -79.6167 133° Southeast 108 124 5,000 240 Climbing Cleveland Center
06:04PM 40.1486 -79.6203 318° Northwest 108 124 5,000  Level Cleveland Center
06:05PM 40.1214 -79.5803 132° Southeast 121 139 5,000  Level Cleveland Center
06:05PM 40.1269 -79.5864 320° Northwest 117 135 5,000 60 Level Cleveland Center
06:06PM 40.0953 -79.5436 134° Southeast 130 150 5,100 60 Climbing Cleveland Center
06:06PM 40.0986 -79.5450 342° North 126 145 5,100 480 Level Cleveland Center
06:07PM 40.0789 -79.5139 130° Southeast 108 124 5,600 480 Climbing Cleveland Center
06:07PM 40.0803 -79.5147 335° Northwest 113 130 5,600 360 Level Cleveland Center
06:08PM 40.0600 -79.4894 136° Southeast 96 110 6,000 360 Climbing Cleveland Center
06:08PM 40.0619 -79.4897 354° North 100 115 6,000 360 Level Cleveland Center
06:09PM 40.0414 -79.4622 134° Southeast 95 109 6,400 480 Climbing Cleveland Center
06:09PM 40.0436 -79.4633 339° North 98 113 6,500 300 Climbing Cleveland Center
06:10PM 40.0286 -79.4342 124° Southeast 97 112 6,800 240 Climbing Cleveland Center
06:11PM 40.0094 -79.4092 135° Southeast 96 110 7,000 360 Climbing Cleveland Center
06:11PM 40.0025 -79.4019 141° Southeast 106 122 7,200 480 Climbing Cleveland Center
06:12PM 39.9864 -79.3753 128° Southeast 102 117 7,500 240 Climbing Cleveland Center
06:13PM 39.9703 -79.3461 126° Southeast 101 116 7,800 300 Climbing Cleveland Center
06:14PM 39.9689 -79.3289 96° East 98 113 7,900 180 Climbing Cleveland Center
06:14PM 39.9644 -79.3092 106° East 106 122 8,000 120 Climbing Cleveland Center
06:14PM 39.9647 -79.3081 72° East 100 115 8,000  Level Cleveland Center
06:15PM 39.9578 -79.2644 102° East 120 138 8,000  Level Cleveland Center
06:15PM 39.9606 -79.2658 339° North 108 124 8,000  Level Cleveland Center
06:16PM 39.9506 -79.2253 108° East 133 153 8,000  Level Cleveland Center
06:16PM 39.9517 -79.2175 79° East 137 158 8,000  Level Cleveland Center
06:17PM 39.9394 -79.1803 113° Southeast 133 153 8,000  Level Cleveland Center
06:18PM 39.9383 -79.1719 100° East 142 163 8,000  Level Cleveland Center
06:18PM 39.9311 -79.1328 104° East 126 145 8,000  Level Cleveland Center
06:19PM 39.9308 -79.1186 91° East 128 147 8,000 -120 Level Cleveland Center
06:19PM 39.9244 -79.0856 104° East 131 151 7,900 -120 Descending Cleveland Center
06:20PM 39.9236 -79.0747 96° East 126 145 7,900  Level Cleveland Center
06:20PM 39.9156 -79.0406 107° East 129 148 7,900  Level Cleveland Center
06:21PM 39.9133 -79.0275 103° East 134 154 7,900  Level Cleveland Center
06:21PM 39.9025 -78.9953 114° Southeast 126 145 7,900  Level Cleveland Center
06:22PM 39.9031 -78.9853 86° East 127 146 7,900  Level Cleveland Center
06:22PM 39.8958 -78.9508 105° East 126 145 7,900  Level Cleveland Center
06:23PM 39.8919 -78.9294 103° East 134 154 7,900 60 Level Cleveland Center
06:23PM 39.8867 -78.9086 108° East 125 144 8,000 60 Climbing Cleveland Center
06:24PM 39.8839 -78.8883 100° East 127 146 8,000  Level Cleveland Center
06:24PM 39.8775 -78.8667 111° Southeast 120 138 8,000  Level Cleveland Center
06:25PM 39.8758 -78.8464 96° East 121 139 8,000  Level Cleveland Center
06:25PM 39.8708 -78.8194 104° East 122 140 8,000  Level Cleveland Center
06:26PM 39.8686 -78.8033 100° East 122 140 8,000  Level Cleveland Center
06:26PM 39.8636 -78.7775 104° East 123 142 8,000  Level Cleveland Center
06:27PM 39.8611 -78.7594 100° East 123 142 8,000  Level Cleveland Center
06:27PM 39.8564 -78.7358 105° East 123 142 8,000 -120 Level Cleveland Center
06:28PM 39.8525 -78.7081 100° East 124 143 7,900 -120 Descending Cleveland Center
06:28PM 39.8494 -78.6942 106° East 125 144 7,900  Level Cleveland Center
06:29PM 39.8431 -78.6650 106° East 123 142 7,900  Level Cleveland Center
06:29PM 39.8381 -78.6517 116° Southeast 124 143 7,900  Level Cleveland Center
06:30PM 39.8342 -78.6217 100° East 124 143 7,900 60 Level Cleveland Center
06:30PM 39.8311 -78.6075 106° East 122 140 8,000  Climbing Cleveland Center
06:31PM 39.8300 -78.5817 93° East 116 133 7,900 -240 Descending Cleveland Center
06:31PM 39.8286 -78.5608 95° East 123 142 7,800 -420 Descending Cleveland Center
06:32PM 39.8236 -78.5347 104° East 129 148 7,500 -540 Descending Cleveland Center
06:32PM 39.8197 -78.5133 103° East 136 157 7,300 -540 Descending Cleveland Center
06:33PM 39.8139 -78.4764 102° East 139 160 7,000 -300 Descending Cleveland Center
06:33PM 39.8108 -78.4661 111° Southeast 139 160 7,000 -120 Level Cleveland Center
06:34PM 39.8069 -78.4308 98° East 131 151 6,900 -240 Descending Cleveland Center
06:34PM 39.8017 -78.4214 126° Southeast 126 145 6,800 60 Descending Cleveland Center
06:35PM 39.7978 -78.3931 100° East 116 133 7,000 120 Climbing Cleveland Center
06:35PM 39.7947 -78.3769 104° East 120 138 7,000  Level Cleveland Center
06:36PM 39.7906 -78.3472 100° East 128 147 7,000 60 Level Cleveland Center
06:36PM 39.7861 -78.3244 104° East 129 148 7,100 60 Climbing Cleveland Center
06:37PM 39.7822 -78.3042 104° East 126 145 7,100 -120 Level Cleveland Center
06:37PM 39.7789 -78.2828 101° East 129 148 7,000 -120 Descending Cleveland Center
06:38PM 39.7711 -78.2536 109° East 124 143 7,000  Level Cleveland Center
06:38PM 39.7694 -78.2408 100° East 126 145 7,000 -120 Level Cleveland Center
06:39PM 39.7642 -78.2078 102° East 127 146 6,900  Descending Cleveland Center
06:40PM 39.7561 -78.1661 104° East 123 142 7,000  Climbing Cleveland Center
06:41PM 39.7483 -78.1258 104° East 118 136 7,000 -60 Level Cleveland Center
06:42PM 39.7392 -78.0853 106° East 118 136 6,900 -480 Descending Cleveland Center
06:43PM 39.7269 -78.0300 106° East 123 142 6,100 -780 Descending Cleveland Center
06:44PM 39.7164 -77.9797 105° East 134 154 5,400 -540 Descending Cleveland Center
06:45PM 39.7044 -77.9297 107° East 141 162 5,100 -240 Descending Cleveland Center
06:46PM 39.6931 -77.8850 108° East 138 159 5,000 -60 Descending Cleveland Center
06:48PM 39.6892 -77.8389 96° East 133 153 5,000  Level Cleveland Center
06:49PM 39.6775 -77.7972 110° East 128 147 5,100  Climbing Cleveland Center
06:50PM 39.6656 -77.7456 107° East 125 144 5,100 -60 Level Cleveland Center
06:51PM 39.6556 -77.6997 106° East 127 146 5,000 -60 Descending Cleveland Center
06:52PM 39.6444 -77.6533 107° East 130 150 5,000  Level Cleveland Center
06:53PM 39.6314 -77.6089 111° Southeast 132 152 5,000  Level Cleveland Center
06:54PM 39.6206 -77.5636 107° East 132 152 5,000  Level Cleveland Center
06:55PM 39.6139 -77.5183 101° East 130 150 5,000  Level Cleveland Center
06:56PM 39.6047 -77.4733 105° East 129 148 5,000  Level Cleveland Center
06:57PM 39.5906 -77.4189 109° East 130 150 5,000  Level Cleveland Center
06:58PM 39.5819 -77.3725 104° East 131 151 5,000  Level Cleveland Center
06:59PM 39.5731 -77.3278 104° East 130 150 5,100  Climbing Cleveland Center
07:00PM 39.5628 -77.2819 106° East 130 150 5,000 -60 Descending Cleveland Center
07:01PM 39.5511 -77.2347 108° East 133 153 5,000  Level Cleveland Center
07:02PM 39.5397 -77.1878 107° East 135 155 5,000 -180 Level Cleveland Center
07:03PM 39.5167 -77.1333 119° Southeast 139 160 4,700 -360 Descending Potomac TRACON
07:04PM 39.5167 -77.0833 90° East 138 159 4,300 -360 Descending Potomac TRACON
07:05PM 39.5000 -77.0333 113° Southeast 135 155 4,000 -240 Descending Potomac TRACON
07:06PM 39.5000 -77.0000 90° East 127 146 3,900 -60 Descending Potomac TRACON
07:07PM 39.4833 -76.9500 113° Southeast 125 144 3,900 -60 Level Potomac TRACON
07:08PM 39.4833 -76.9000 90° East 133 153 3,800  Descending Potomac TRACON
07:09PM 39.4667 -76.8667 123° Southeast 128 147 3,900 -240 Climbing Potomac TRACON
07:10PM 39.4500 -76.8167 113° Southeast 141 162 3,400 -540 Descending Potomac TRACON
07:11PM 39.4333 -76.7667 113° Southeast 140 161 2,900 -300 Descending Potomac TRACON
07:12PM 39.4167 -76.7167 113° Southeast 135 155 2,900  Level Potomac TRACON
07:13PM 39.4167 -76.6833 90° East 130 150 2,900  Level Potomac TRACON
07:14PM 39.4000 -76.6333 113° Southeast 131 151 2,900 -60 Level Potomac TRACON
07:15PM 39.3833 -76.6000 123° Southeast 128 147 2,800 -360 Descending Potomac TRACON
07:16PM 39.3667 -76.5500 113° Southeast 144 166 2,200 -600 Descending Potomac TRACON
07:17PM 39.3500 -76.5000 113° Southeast 134 154 1,700 -600 Descending Potomac TRACON
07:18PM 39.3333 -76.4667 123° Southeast 129 148 1,000 -480 Descending Potomac TRACON
07:19PM 39.3167 -76.4333 123° Southeast 103 119 800 -120 Descending Potomac TRACON
07:20PM 39.3000 -76.4000 123° Southeast 95 109 800 -180 Level Potomac TRACON
07:21PM 39.3167 -76.4000 360° North 58 67 500 -360 Descending Potomac TRACON
07:23PM 39.3257 -76.4138 North  Level Estimated